La Seu — EA7477 — position and weather

sailwx.info

Track history (hours):
 
Tides and Currents Weather Stations Pressure Air Temp Water Temp Dewpoint Dewpoint Depression Visibility Wind Speed Wind Dir Waves Ship Positions

La Seu

Last reported at 2018-May-22 14:12 UTC. Time now 2018-May-22 19:53 UTC.
Position N 41°13' E 001°44'.

Length 20 m.

Type: Fishing. MMSI: 224010950.

Date/timePositionNaut miles runAvg speedWind from/ knotsBaromVisibWave heightAir tempDewpointWater temp
2018-May-22 14:12N 41°13' E 001°44'0 0.0
2018-May-22 14:00N 41°13' E 001°44'0 0.0
2018-May-22 13:30N 41°13' E 001°44'0 0.9
2018-May-22 13:00N 41°13' E 001°44'5 9.7
2018-May-22 12:30N 41°08' E 001°44'3 6.5
2018-May-22 12:00N 41°04' E 001°45'1 1.8
2018-May-22 11:17N 41°03' E 001°45'5 2.6
2018-May-22 09:11N 41°02' E 001°52'1 2.8
2018-May-22 08:57N 41°02' E 001°51'1 2.8
2018-May-22 08:30N 41°02' E 001°49'4 1.3
2018-May-22 05:25N 41°06' E 001°50'410.7
2018-May-22 05:00N 41°10' E 001°46'3 6.7
2018-May-22 04:30N 41°13' E 001°44'0 0.0
2018-May-21 13:57N 41°13' E 001°44'0 0.2
2018-May-21 13:30N 41°13' E 001°44'2 3.5
2018-May-21 13:00N 41°11' E 001°44'510.6
2018-May-21 12:30N 41°06' E 001°44'2 5.0
2018-May-21 12:00N 41°03' E 001°44'5 2.1
2018-May-21 09:29N 41°02' E 001°51'1 2.8
2018-May-21 09:00N 41°02' E 001°49'2 2.8
2018-May-21 08:22N 41°02' E 001°47'3 1.4
2018-May-21 05:49N 41°05' E 001°50'1 3.6
2018-May-21 05:30N 41°06' E 001°50'5 9.4
2018-May-21 05:00N 41°10' E 001°46'3 6.8
2018-May-21 04:30N 41°13' E 001°44'  
2018-May-18 14:02N 41°13' E 001°44'0 0.3
2018-May-18 14:00N 41°13' E 001°44'0 0.0
2018-May-18 13:30N 41°13' E 001°44'0 0.0
2018-May-18 13:00N 41°13' E 001°44'3 5.5
2018-May-18 12:30N 41°10' E 001°46'510.4
2018-May-18 12:00N 41°06' E 001°49'1 1.9
2018-May-18 11:30N 41°05' E 001°50'1 2.4
2018-May-18 10:58N 41°04' E 001°49'1 2.5
2018-May-18 10:28N 41°03' E 001°50'1 2.0
2018-May-18 10:00N 41°02' E 001°50'1 2.9
2018-May-18 09:30N 41°02' E 001°48'1 3.0
2018-May-18 09:00N 41°01' E 001°46'4 1.4
2018-May-18 05:59N 41°05' E 001°50'2 3.4
2018-May-18 05:30N 41°07' E 001°49'4 8.3
2018-May-18 05:00N 41°10' E 001°46'3 6.6
2018-May-18 04:30N 41°13' E 001°44'0 0.0
2018-May-17 13:26N 41°13' E 001°44'1 2.7
2018-May-17 13:00N 41°12' E 001°44'4 7.9
2018-May-17 12:30N 41°08' E 001°44'1 2.5
2018-May-17 12:00N 41°07' E 001°44'1 1.8
2018-May-17 11:30N 41°06' E 001°44'1 2.6
2018-May-17 11:00N 41°05' E 001°45'1 3.0
2018-May-17 10:30N 41°03' E 001°44'6 2.5
2018-May-17 08:20N 41°02' E 001°52'1 2.9
2018-May-17 07:59N 41°02' E 001°50'1 2.9
2018-May-17 07:30N 41°02' E 001°49'1 2.9
2018-May-17 07:00N 41°02' E 001°47'1 2.6
2018-May-17 06:29N 41°02' E 001°45'2 3.0
2018-May-17 05:50N 41°04' E 001°45'1 2.6
2018-May-17 05:30N 41°05' E 001°45'4 8.2
2018-May-17 05:00N 41°09' E 001°44'4 7.2
2018-May-17 04:30N 41°13' E 001°44'0 0.0
2018-May-16 13:41N 41°13' E 001°44'0 0.0
2018-May-16 13:28N 41°13' E 001°44'0 0.0
2018-May-16 13:00N 41°13' E 001°44'2 4.6
2018-May-16 12:30N 41°11' E 001°44'4 8.2
2018-May-16 12:00N 41°07' E 001°44'1 1.2
2018-May-16 11:30N 41°06' E 001°44'1 2.6
2018-May-16 10:59N 41°05' E 001°45'1 3.0
2018-May-16 10:30N 41°03' E 001°44'1 2.7
2018-May-16 10:00N 41°02' E 001°45'5 2.8
2018-May-16 08:11N 41°02' E 001°51'1 2.9
2018-May-16 07:59N 41°02' E 001°51'1 2.9
2018-May-16 07:30N 41°02' E 001°49'1 2.9
2018-May-16 07:00N 41°02' E 001°47'1 2.8
2018-May-16 06:30N 41°02' E 001°45'2 3.1
2018-May-16 06:00N 41°04' E 001°45'1 2.6
2018-May-16 05:30N 41°05' E 001°45'4 8.1
2018-May-16 05:00N 41°09' E 001°44'4 7.0
2018-May-16 04:28N 41°13' E 001°44'0 0.0
2018-May-15 15:41N 41°13' E 001°44'0 0.0
2018-May-15 15:31N 41°13' E 001°44'0 0.0
2018-May-15 14:58N 41°13' E 001°44'0 0.0
2018-May-15 14:29N 41°13' E 001°44'0 0.0
2018-May-15 14:00N 41°13' E 001°44'0 0.0
2018-May-15 13:30N 41°13' E 001°44'0 0.0
2018-May-15 13:00N 41°13' E 001°44'2 4.1
2018-May-15 12:30N 41°11' E 001°44'4 8.8
2018-May-15 12:00N 41°07' E 001°44'0 0.5
2018-May-15 11:30N 41°06' E 001°44'1 2.4
2018-May-15 11:00N 41°05' E 001°45'1 2.9
2018-May-15 10:30N 41°04' E 001°44'5 1.9
2018-May-15 08:00N 41°03' E 001°50'1 2.8
2018-May-15 07:30N 41°02' E 001°49'1 2.8
2018-May-15 07:00N 41°02' E 001°47'2 2.5
2018-May-15 06:21N 41°03' E 001°45'1 3.0
2018-May-15 05:57N 41°04' E 001°45'2 3.0
2018-May-15 05:27N 41°06' E 001°45'4 8.5
2018-May-15 05:00N 41°09' E 001°44'3 7.0
2018-May-15 04:30N 41°13' E 001°44'0 0.0
2018-May-14 06:19N 41°13' E 001°44'1 3.2
2018-May-14 06:00N 41°12' E 001°44'3 5.9
2018-May-14 05:30N 41°09' E 001°44'1 1.1
2018-May-14 05:00N 41°09' E 001°44'3 6.8
2018-May-14 04:30N 41°13' E 001°44'  
Track history (hours):
 
Tides and Currents Weather Stations Pressure Air Temp Water Temp Dewpoint Dewpoint Depression Visibility Wind Speed Wind Dir Waves Ship Positions

La Seu

Last reported at 2018-May-22 14:12 UTC. Time now 2018-May-22 19:53 UTC.
Position N 41°13' E 001°44'.

Length 20 m.

Type: Fishing. MMSI: 224010950.

Date/timePositionNaut miles runAvg speedWind from/ knotsBaromVisibWave heightAir tempDewpointWater temp
2018-May-22 14:12N 41°13' E 001°44'0 0.0
2018-May-22 14:00N 41°13' E 001°44'0 0.0
2018-May-22 13:30N 41°13' E 001°44'0 0.9
2018-May-22 13:00N 41°13' E 001°44'5 9.7
2018-May-22 12:30N 41°08' E 001°44'3 6.5
2018-May-22 12:00N 41°04' E 001°45'1 1.8
2018-May-22 11:17N 41°03' E 001°45'5 2.6
2018-May-22 09:11N 41°02' E 001°52'1 2.8
2018-May-22 08:57N 41°02' E 001°51'1 2.8
2018-May-22 08:30N 41°02' E 001°49'4 1.3
2018-May-22 05:25N 41°06' E 001°50'410.7
2018-May-22 05:00N 41°10' E 001°46'3 6.7
2018-May-22 04:30N 41°13' E 001°44'0 0.0
2018-May-21 13:57N 41°13' E 001°44'0 0.2
2018-May-21 13:30N 41°13' E 001°44'2 3.5
2018-May-21 13:00N 41°11' E 001°44'510.6
2018-May-21 12:30N 41°06' E 001°44'2 5.0
2018-May-21 12:00N 41°03' E 001°44'5 2.1
2018-May-21 09:29N 41°02' E 001°51'1 2.8
2018-May-21 09:00N 41°02' E 001°49'2 2.8
2018-May-21 08:22N 41°02' E 001°47'3 1.4
2018-May-21 05:49N 41°05' E 001°50'1 3.6
2018-May-21 05:30N 41°06' E 001°50'5 9.4
2018-May-21 05:00N 41°10' E 001°46'3 6.8
2018-May-21 04:30N 41°13' E 001°44'  
2018-May-18 14:02N 41°13' E 001°44'0 0.3
2018-May-18 14:00N 41°13' E 001°44'0 0.0
2018-May-18 13:30N 41°13' E 001°44'0 0.0
2018-May-18 13:00N 41°13' E 001°44'3 5.5
2018-May-18 12:30N 41°10' E 001°46'510.4
2018-May-18 12:00N 41°06' E 001°49'1 1.9
2018-May-18 11:30N 41°05' E 001°50'1 2.4
2018-May-18 10:58N 41°04' E 001°49'1 2.5
2018-May-18 10:28N 41°03' E 001°50'1 2.0
2018-May-18 10:00N 41°02' E 001°50'1 2.9
2018-May-18 09:30N 41°02' E 001°48'1 3.0
2018-May-18 09:00N 41°01' E 001°46'4 1.4
2018-May-18 05:59N 41°05' E 001°50'2 3.4
2018-May-18 05:30N 41°07' E 001°49'4 8.3
2018-May-18 05:00N 41°10' E 001°46'3 6.6
2018-May-18 04:30N 41°13' E 001°44'0 0.0
2018-May-17 13:26N 41°13' E 001°44'1 2.7
2018-May-17 13:00N 41°12' E 001°44'4 7.9
2018-May-17 12:30N 41°08' E 001°44'1 2.5
2018-May-17 12:00N 41°07' E 001°44'1 1.8
2018-May-17 11:30N 41°06' E 001°44'1 2.6
2018-May-17 11:00N 41°05' E 001°45'1 3.0
2018-May-17 10:30N 41°03' E 001°44'6 2.5
2018-May-17 08:20N 41°02' E 001°52'1 2.9
2018-May-17 07:59N 41°02' E 001°50'1 2.9
2018-May-17 07:30N 41°02' E 001°49'1 2.9
2018-May-17 07:00N 41°02' E 001°47'1 2.6
2018-May-17 06:29N 41°02' E 001°45'2 3.0
2018-May-17 05:50N 41°04' E 001°45'1 2.6
2018-May-17 05:30N 41°05' E 001°45'4 8.2
2018-May-17 05:00N 41°09' E 001°44'4 7.2
2018-May-17 04:30N 41°13' E 001°44'0 0.0
2018-May-16 13:41N 41°13' E 001°44'0 0.0
2018-May-16 13:28N 41°13' E 001°44'0 0.0
2018-May-16 13:00N 41°13' E 001°44'2 4.6
2018-May-16 12:30N 41°11' E 001°44'4 8.2
2018-May-16 12:00N 41°07' E 001°44'1 1.2
2018-May-16 11:30N 41°06' E 001°44'1 2.6
2018-May-16 10:59N 41°05' E 001°45'1 3.0
2018-May-16 10:30N 41°03' E 001°44'1 2.7
2018-May-16 10:00N 41°02' E 001°45'5 2.8
2018-May-16 08:11N 41°02' E 001°51'1 2.9
2018-May-16 07:59N 41°02' E 001°51'1 2.9
2018-May-16 07:30N 41°02' E 001°49'1 2.9
2018-May-16 07:00N 41°02' E 001°47'1 2.8
2018-May-16 06:30N 41°02' E 001°45'2 3.1
2018-May-16 06:00N 41°04' E 001°45'1 2.6
2018-May-16 05:30N 41°05' E 001°45'4 8.1
2018-May-16 05:00N 41°09' E 001°44'4 7.0
2018-May-16 04:28N 41°13' E 001°44'0 0.0
2018-May-15 15:41N 41°13' E 001°44'0 0.0
2018-May-15 15:31N 41°13' E 001°44'0 0.0
2018-May-15 14:58N 41°13' E 001°44'0 0.0
2018-May-15 14:29N 41°13' E 001°44'0 0.0
2018-May-15 14:00N 41°13' E 001°44'0 0.0
2018-May-15 13:30N 41°13' E 001°44'0 0.0
2018-May-15 13:00N 41°13' E 001°44'2 4.1
2018-May-15 12:30N 41°11' E 001°44'4 8.8
2018-May-15 12:00N 41°07' E 001°44'0 0.5
2018-May-15 11:30N 41°06' E 001°44'1 2.4
2018-May-15 11:00N 41°05' E 001°45'1 2.9
2018-May-15 10:30N 41°04' E 001°44'5 1.9
2018-May-15 08:00N 41°03' E 001°50'1 2.8
2018-May-15 07:30N 41°02' E 001°49'1 2.8
2018-May-15 07:00N 41°02' E 001°47'2 2.5
2018-May-15 06:21N 41°03' E 001°45'1 3.0
2018-May-15 05:57N 41°04' E 001°45'2 3.0
2018-May-15 05:27N 41°06' E 001°45'4 8.5
2018-May-15 05:00N 41°09' E 001°44'3 7.0
2018-May-15 04:30N 41°13' E 001°44'0 0.0
2018-May-14 06:19N 41°13' E 001°44'1 3.2
2018-May-14 06:00N 41°12' E 001°44'3 5.9
2018-May-14 05:30N 41°09' E 001°44'1 1.1
2018-May-14 05:00N 41°09' E 001°44'3 6.8
2018-May-14 04:30N 41°13' E 001°44'  

Dump ship's entire track history